createdAt,value
2022-12-03T00:08:19.845Z,12.27
2022-12-03T00:23:25.316Z,12.05
2022-12-03T00:38:27.700Z,12.93
2022-12-03T00:53:32.880Z,11.82
2022-12-03T01:08:34.912Z,12.10
2022-12-03T01:23:36.893Z,11.80
2022-12-03T01:38:38.891Z,13.18
2022-12-03T01:53:41.055Z,12.30
2022-12-03T05:31:56.201Z,12.80
2022-12-03T05:46:58.199Z,13.82
2022-12-03T06:02:00.244Z,12.93
2022-12-03T06:17:02.692Z,13.40
2022-12-03T06:32:05.054Z,12.73
2022-12-03T06:47:07.020Z,12.50
2022-12-03T07:02:10.144Z,13.05
2022-12-03T07:17:12.169Z,13.30
2022-12-03T07:32:14.148Z,12.82
2022-12-03T07:47:16.180Z,12.63
2022-12-03T08:02:21.823Z,15.25
2022-12-03T08:17:24.169Z,14.98
2022-12-03T08:32:26.266Z,18.63
2022-12-03T08:47:29.565Z,15.95
2022-12-03T09:02:33.162Z,15.18
2022-12-03T09:17:35.168Z,14.45
2022-12-03T09:32:37.668Z,15.27
2022-12-03T09:47:40.468Z,14.00
2022-12-03T10:02:42.432Z,14.05
2022-12-03T10:17:45.714Z,13.90
2022-12-03T10:32:49.162Z,14.48
2022-12-03T10:48:05.958Z,14.68
2022-12-03T11:03:31.205Z,15.05
2022-12-03T11:18:43.021Z,14.93
2022-12-03T11:33:45.182Z,13.80
2022-12-03T11:48:47.445Z,14.35
2022-12-03T12:03:50.120Z,13.77
2022-12-03T12:18:56.380Z,14.82
2022-12-03T12:33:58.805Z,15.65
2022-12-03T12:49:01.068Z,15.30
2022-12-03T13:04:04.140Z,14.52
2022-12-03T13:19:16.744Z,15.52
2022-12-03T13:34:24.458Z,15.70
2022-12-03T13:49:26.802Z,16.48
2022-12-03T14:04:28.913Z,17.15
2022-12-03T14:19:31.792Z,16.38
2022-12-03T14:34:33.809Z,16.10
2022-12-03T14:49:38.165Z,16.15
2022-12-03T15:04:41.389Z,16.45
2022-12-03T15:19:43.366Z,17.10
2022-12-03T15:34:45.399Z,15.75
2022-12-03T15:49:48.573Z,15.63
2022-12-03T16:04:50.556Z,15.82
2022-12-03T16:19:52.856Z,16.38
2022-12-03T16:34:55.186Z,16.02
2022-12-03T16:49:57.208Z,15.43
2022-12-03T17:04:59.482Z,16.42
2022-12-03T17:20:01.613Z,18.20
2022-12-03T17:35:05.007Z,17.63
2022-12-03T17:50:07.876Z,17.48
2022-12-03T18:05:10.562Z,17.98
2022-12-03T18:20:12.923Z,16.20
2022-12-03T18:35:19.235Z,17.60
2022-12-03T18:50:21.292Z,17.58
2022-12-03T19:05:24.423Z,17.13
2022-12-03T19:20:26.518Z,17.35
2022-12-03T19:35:28.698Z,16.52
2022-12-03T19:50:30.820Z,16.67
2022-12-03T20:05:37.725Z,16.20
2022-12-03T20:20:39.723Z,15.18
2022-12-03T20:35:42.245Z,14.98
2022-12-03T20:50:44.279Z,14.20
2022-12-03T21:05:46.306Z,14.00
2022-12-03T21:20:50.022Z,15.55
2022-12-03T21:35:52.314Z,14.77
2022-12-03T21:51:04.071Z,14.27
2022-12-03T22:06:06.282Z,14.90
2022-12-03T22:21:10.269Z,14.52
2022-12-03T22:36:18.283Z,13.75
2022-12-03T22:51:24.602Z,14.43
2022-12-03T23:06:26.934Z,13.65
2022-12-03T23:21:30.926Z,12.32
2022-12-03T23:36:33.361Z,12.52
2022-12-03T23:51:35.499Z,11.73
